createdAt,value
2017-11-29T00:02:16.166Z,5.22
2017-11-29T00:04:43.864Z,5.24
2017-11-29T00:07:11.526Z,5.24
2017-11-29T00:09:39.153Z,5.24
2017-11-29T00:12:06.756Z,5.26
2017-11-29T00:14:34.394Z,5.26
2017-11-29T00:17:02.005Z,5.29
2017-11-29T00:19:29.696Z,5.30
2017-11-29T00:21:57.372Z,5.30
2017-11-29T00:24:25.045Z,5.30
2017-11-29T00:26:52.697Z,5.29
2017-11-29T00:29:20.383Z,5.29
2017-11-29T00:31:47.997Z,5.30
2017-11-29T00:34:15.704Z,5.32
2017-11-29T00:36:43.365Z,5.32
2017-11-29T00:39:11.081Z,5.32
2017-11-29T00:41:38.730Z,5.32
2017-11-29T00:44:06.344Z,5.32
2017-11-29T00:46:33.989Z,5.32
2017-11-29T00:49:01.637Z,5.32
2017-11-29T00:51:29.251Z,5.30
2017-11-29T00:53:56.915Z,5.32
2017-11-29T00:56:24.619Z,5.32
2017-11-29T00:58:52.380Z,5.31
2017-11-29T01:01:20.100Z,5.31
2017-11-29T01:03:47.800Z,5.32
2017-11-29T01:06:15.473Z,5.33
2017-11-29T01:08:43.154Z,5.33
2017-11-29T01:11:10.851Z,5.33
2017-11-29T01:13:38.457Z,5.32
2017-11-29T01:16:06.092Z,5.31
2017-11-29T01:18:33.689Z,5.31
2017-11-29T01:21:01.325Z,5.32
2017-11-29T01:23:28.995Z,5.33
2017-11-29T01:25:56.734Z,5.37
2017-11-29T01:28:24.336Z,5.37
2017-11-29T01:30:52.023Z,5.33
2017-11-29T01:33:19.676Z,5.29
2017-11-29T01:35:47.304Z,5.26
2017-11-29T01:38:14.953Z,5.24
2017-11-29T01:40:43.489Z,5.19
2017-11-29T01:43:11.132Z,5.19
2017-11-29T01:45:38.730Z,5.18
2017-11-29T01:48:06.360Z,5.16
2017-11-29T01:50:33.940Z,5.16
2017-11-29T01:53:01.601Z,5.15
2017-11-29T01:55:29.257Z,5.16
2017-11-29T01:57:56.880Z,5.14
2017-11-29T02:00:24.561Z,5.15
2017-11-29T02:02:52.265Z,5.16
2017-11-29T02:05:19.860Z,5.17
2017-11-29T02:07:47.549Z,5.16
2017-11-29T02:10:15.212Z,5.17
2017-11-29T02:12:42.844Z,5.15
2017-11-29T02:15:10.943Z,5.15
2017-11-29T02:17:38.573Z,5.17
2017-11-29T02:20:06.200Z,5.16
2017-11-29T02:22:33.847Z,5.16
2017-11-29T02:25:01.469Z,5.15
2017-11-29T02:27:29.107Z,5.16
2017-11-29T02:29:56.722Z,5.16
2017-11-29T02:32:24.401Z,5.17
2017-11-29T02:34:52.071Z,5.16
2017-11-29T02:37:19.738Z,5.16
2017-11-29T02:39:59.195Z,5.15
2017-11-29T02:42:37.716Z,5.14
2017-11-29T02:45:05.426Z,5.15
2017-11-29T02:47:33.053Z,5.15
2017-11-29T02:50:00.874Z,5.14
2017-11-29T02:52:28.550Z,5.12
2017-11-29T02:54:56.193Z,5.11
2017-11-29T02:57:23.922Z,5.09
2017-11-29T02:59:51.623Z,5.08
2017-11-29T03:02:19.306Z,5.08
2017-11-29T03:04:46.992Z,5.05
2017-11-29T03:07:14.613Z,5.06
2017-11-29T03:09:42.301Z,5.05
2017-11-29T03:12:09.908Z,5.04
2017-11-29T03:14:37.562Z,5.03
2017-11-29T03:17:05.179Z,5.02
2017-11-29T03:19:32.854Z,5.01
2017-11-29T03:22:00.446Z,5.00
2017-11-29T03:24:28.078Z,5.00
2017-11-29T03:26:55.663Z,5.01
2017-11-29T03:29:23.285Z,5.00
2017-11-29T03:31:50.933Z,5.00
2017-11-29T03:34:18.643Z,4.99
2017-11-29T03:36:46.250Z,4.98
2017-11-29T03:39:13.826Z,4.96
2017-11-29T03:41:41.453Z,4.94
2017-11-29T03:44:09.055Z,4.94
2017-11-29T03:46:36.683Z,4.93
2017-11-29T03:49:04.267Z,4.93
2017-11-29T03:51:31.900Z,4.92
2017-11-29T03:53:59.502Z,4.92
2017-11-29T03:56:27.126Z,4.92
2017-11-29T03:58:54.731Z,4.92
2017-11-29T04:01:22.427Z,4.91
2017-11-29T04:03:50.100Z,4.88
2017-11-29T04:06:17.738Z,4.89
2017-11-29T04:08:45.413Z,4.89
2017-11-29T04:11:13.077Z,4.89
2017-11-29T04:13:40.690Z,4.87
2017-11-29T04:16:08.360Z,4.87
2017-11-29T04:18:35.951Z,4.86
2017-11-29T04:21:03.597Z,4.86
2017-11-29T04:23:31.268Z,4.86
2017-11-29T04:25:58.903Z,4.86
2017-11-29T04:28:26.511Z,4.85
2017-11-29T04:30:54.150Z,4.86
2017-11-29T04:33:21.761Z,4.86
2017-11-29T04:35:49.449Z,4.86
2017-11-29T04:38:17.054Z,4.85
2017-11-29T04:40:44.644Z,4.86
2017-11-29T04:43:12.284Z,4.86
2017-11-29T04:45:39.877Z,4.86
2017-11-29T04:48:07.503Z,4.85
2017-11-29T04:50:35.161Z,4.84
2017-11-29T04:53:02.821Z,4.84
2017-11-29T04:55:30.520Z,4.84
2017-11-29T04:57:58.167Z,4.84
2017-11-29T05:00:25.777Z,4.84
2017-11-29T05:02:53.422Z,4.83
2017-11-29T05:05:21.041Z,4.83
2017-11-29T05:07:48.752Z,4.83
2017-11-29T05:10:16.349Z,4.83
2017-11-29T05:12:44.049Z,4.82
2017-11-29T05:15:11.668Z,4.84
2017-11-29T05:17:39.296Z,4.83
2017-11-29T05:20:06.890Z,4.82
2017-11-29T05:22:34.602Z,4.80
2017-11-29T05:25:02.193Z,4.80
2017-11-29T05:27:29.912Z,4.80
2017-11-29T05:29:57.502Z,4.81
2017-11-29T05:32:25.278Z,4.80
2017-11-29T05:34:52.880Z,4.80
2017-11-29T05:37:20.478Z,4.80
2017-11-29T05:39:48.187Z,4.78
2017-11-29T05:42:15.817Z,4.78
2017-11-29T05:44:43.471Z,4.76
2017-11-29T05:47:11.115Z,4.77
2017-11-29T05:49:38.770Z,4.76
2017-11-29T05:52:06.372Z,4.75
2017-11-29T05:54:34.088Z,4.74
2017-11-29T05:57:01.712Z,4.74
2017-11-29T05:59:29.401Z,4.73
2017-11-29T06:01:57.010Z,4.73
2017-11-29T06:04:24.679Z,4.72
2017-11-29T06:06:52.299Z,4.71
2017-11-29T06:09:19.943Z,4.70
2017-11-29T06:11:47.564Z,4.69
2017-11-29T06:14:15.209Z,4.69
2017-11-29T06:16:42.807Z,4.68
2017-11-29T06:19:10.456Z,4.69
2017-11-29T06:21:38.287Z,4.69
2017-11-29T06:24:05.920Z,4.68
2017-11-29T06:26:33.603Z,4.68
2017-11-29T06:29:02.689Z,4.67
2017-11-29T06:31:30.319Z,4.64
2017-11-29T06:33:57.989Z,4.64
2017-11-29T06:36:25.590Z,4.65
2017-11-29T06:38:53.233Z,4.65
2017-11-29T06:41:20.826Z,4.65
2017-11-29T06:43:48.425Z,4.64
2017-11-29T06:46:16.060Z,4.64
2017-11-29T06:48:43.657Z,4.65
2017-11-29T06:51:13.088Z,4.65
2017-11-29T06:53:41.783Z,4.66
2017-11-29T06:56:09.430Z,4.66
2017-11-29T06:58:37.031Z,4.66
2017-11-29T07:01:04.688Z,4.65
2017-11-29T07:03:32.290Z,4.65
2017-11-29T07:05:59.926Z,4.64
2017-11-29T07:08:27.601Z,4.64
2017-11-29T07:10:55.325Z,4.63
2017-11-29T07:13:23.065Z,4.63
2017-11-29T07:15:50.800Z,4.63
2017-11-29T07:18:18.404Z,4.63
2017-11-29T07:20:46.040Z,4.63
2017-11-29T07:23:13.645Z,4.64
2017-11-29T07:25:41.293Z,4.64
2017-11-29T07:28:08.949Z,4.64
2017-11-29T07:30:36.673Z,4.65
2017-11-29T07:33:04.293Z,4.65
2017-11-29T07:35:31.978Z,4.65
2017-11-29T07:37:59.612Z,4.64
2017-11-29T07:40:27.195Z,4.65
2017-11-29T07:42:54.868Z,4.66
2017-11-29T07:45:22.526Z,4.65
2017-11-29T07:47:50.222Z,4.66
2017-11-29T07:50:17.874Z,4.64
2017-11-29T07:52:45.565Z,4.67
2017-11-29T07:55:13.231Z,4.69
2017-11-29T07:57:41.384Z,4.72
2017-11-29T08:00:09.070Z,4.74
2017-11-29T08:02:36.804Z,4.73
2017-11-29T08:05:04.825Z,4.76
2017-11-29T08:07:32.534Z,4.79
2017-11-29T08:10:00.210Z,4.81
2017-11-29T08:12:27.915Z,4.84
2017-11-29T08:14:55.586Z,4.85
2017-11-29T08:17:23.378Z,4.91
2017-11-29T08:19:51.054Z,4.93
2017-11-29T08:22:18.772Z,4.95
2017-11-29T08:24:46.438Z,4.98
2017-11-29T08:27:14.185Z,5.00
2017-11-29T08:29:41.849Z,5.02
2017-11-29T08:32:10.430Z,5.02
2017-11-29T08:34:39.106Z,5.04
2017-11-29T08:37:06.815Z,5.10
2017-11-29T08:39:34.564Z,5.09
2017-11-29T08:42:03.059Z,5.11
2017-11-29T08:44:30.838Z,5.09
2017-11-29T08:46:58.552Z,5.06
2017-11-29T08:49:26.299Z,5.03
2017-11-29T08:51:53.963Z,5.02
2017-11-29T08:54:21.676Z,5.01
2017-11-29T08:56:49.376Z,5.03
2017-11-29T08:59:17.021Z,5.03
2017-11-29T09:01:44.676Z,5.11
2017-11-29T09:04:12.426Z,5.17
2017-11-29T09:06:40.034Z,5.23
2017-11-29T09:09:07.692Z,5.29
2017-11-29T09:11:35.366Z,5.37
2017-11-29T09:14:03.052Z,5.43
2017-11-29T09:16:30.712Z,5.54
2017-11-29T09:18:58.368Z,5.61
2017-11-29T09:21:25.977Z,5.63
2017-11-29T09:23:53.680Z,5.61
2017-11-29T09:26:21.345Z,5.61
2017-11-29T09:28:49.190Z,5.63
2017-11-29T09:31:16.861Z,5.67
2017-11-29T09:33:44.589Z,5.71
2017-11-29T09:36:12.280Z,5.73
2017-11-29T09:38:39.944Z,5.70
2017-11-29T09:41:07.670Z,5.71
2017-11-29T09:43:35.381Z,5.77
2017-11-29T09:46:03.105Z,5.86
2017-11-29T09:48:30.756Z,5.84
2017-11-29T09:50:58.508Z,5.75
2017-11-29T09:53:26.242Z,5.69
2017-11-29T09:55:54.009Z,5.64
2017-11-29T09:58:21.697Z,5.57
2017-11-29T10:00:49.365Z,5.47
2017-11-29T10:03:16.963Z,5.44
2017-11-29T10:05:44.611Z,5.42
2017-11-29T10:08:12.316Z,5.40
2017-11-29T10:10:40.009Z,5.37
2017-11-29T10:13:07.655Z,5.38
2017-11-29T10:15:35.384Z,5.41
2017-11-29T10:18:03.068Z,5.36
2017-11-29T10:20:30.736Z,5.39
2017-11-29T10:22:58.439Z,5.42
2017-11-29T10:25:26.183Z,5.47
2017-11-29T10:27:53.919Z,5.49
2017-11-29T10:30:21.588Z,5.53
2017-11-29T10:32:49.309Z,5.51
2017-11-29T10:35:16.995Z,5.46
2017-11-29T10:37:44.716Z,5.42
2017-11-29T10:40:12.374Z,5.42
2017-11-29T10:42:40.076Z,5.40
2017-11-29T10:45:07.734Z,5.45
2017-11-29T10:47:35.461Z,5.53
2017-11-29T10:50:03.142Z,5.53
2017-11-29T10:52:30.888Z,5.50
2017-11-29T10:54:58.562Z,5.55
2017-11-29T10:57:26.199Z,5.64
2017-11-29T10:59:53.885Z,5.73
2017-11-29T11:02:21.585Z,5.76
2017-11-29T11:04:49.265Z,5.70
2017-11-29T11:07:17.054Z,5.62
2017-11-29T11:09:44.877Z,5.58
2017-11-29T11:12:12.614Z,5.57
2017-11-29T11:14:40.361Z,5.50
2017-11-29T11:17:08.057Z,5.49
2017-11-29T11:19:35.726Z,5.55
2017-11-29T11:22:03.386Z,5.63
2017-11-29T11:24:31.212Z,5.70
2017-11-29T11:26:58.983Z,5.69
2017-11-29T11:29:26.730Z,5.70
2017-11-29T11:31:54.412Z,5.68
2017-11-29T11:34:22.126Z,5.71
2017-11-29T11:36:49.809Z,5.74
2017-11-29T11:39:17.528Z,5.73
2017-11-29T11:41:45.332Z,5.70
2017-11-29T11:44:13.113Z,5.68
2017-11-29T11:46:40.762Z,5.65
2017-11-29T11:49:08.531Z,5.63
2017-11-29T11:51:36.243Z,5.63
2017-11-29T11:54:03.836Z,5.68
2017-11-29T11:56:31.549Z,5.69
2017-11-29T11:58:59.259Z,5.69
2017-11-29T12:01:27.015Z,5.75
2017-11-29T12:03:54.679Z,5.77
2017-11-29T12:06:22.390Z,5.72
2017-11-29T12:08:50.100Z,5.64
2017-11-29T12:11:17.809Z,5.59
2017-11-29T12:13:45.417Z,5.56
2017-11-29T12:16:13.129Z,5.57
2017-11-29T12:18:40.735Z,5.54
2017-11-29T12:21:08.451Z,5.54
2017-11-29T12:23:36.131Z,5.52
2017-11-29T12:26:03.813Z,5.51
2017-11-29T12:28:31.423Z,5.53
2017-11-29T12:30:59.177Z,5.56
2017-11-29T12:33:26.866Z,5.59
2017-11-29T12:35:54.593Z,5.60
2017-11-29T12:38:22.262Z,5.57
2017-11-29T12:40:49.982Z,5.59
2017-11-29T12:43:17.659Z,5.58
2017-11-29T12:45:45.319Z,5.59
2017-11-29T12:48:24.715Z,5.61
2017-11-29T12:51:04.057Z,5.61
2017-11-29T12:53:31.803Z,5.59
2017-11-29T12:55:59.469Z,5.61
2017-11-29T12:58:27.226Z,5.62
2017-11-29T13:00:54.899Z,5.61
2017-11-29T13:03:22.560Z,5.59
2017-11-29T13:05:50.257Z,5.56
2017-11-29T13:08:17.979Z,5.53
2017-11-29T13:10:45.689Z,5.51
2017-11-29T13:13:13.406Z,5.53
2017-11-29T13:15:41.098Z,5.55
2017-11-29T13:18:08.771Z,5.55
2017-11-29T13:20:36.459Z,5.54
2017-11-29T13:23:04.215Z,5.54
2017-11-29T13:25:31.900Z,5.52
2017-11-29T13:27:59.680Z,5.52
2017-11-29T13:30:27.397Z,5.52
2017-11-29T13:32:55.117Z,5.50
2017-11-29T13:35:22.724Z,5.48
2017-11-29T13:37:50.426Z,5.44
2017-11-29T13:40:18.110Z,5.43
2017-11-29T13:42:45.818Z,5.42
2017-11-29T13:45:13.487Z,5.40
2017-11-29T13:47:41.190Z,5.38
2017-11-29T13:50:08.890Z,5.36
2017-11-29T13:52:36.589Z,5.33
2017-11-29T13:55:04.260Z,5.29
2017-11-29T13:57:32.029Z,5.26
2017-11-29T13:59:59.736Z,5.20
2017-11-29T14:02:27.438Z,5.13
2017-11-29T14:04:55.147Z,5.08
2017-11-29T14:07:22.809Z,5.03
2017-11-29T14:09:50.550Z,5.02
2017-11-29T14:12:18.441Z,5.02
2017-11-29T14:14:46.108Z,5.01
2017-11-29T14:17:13.814Z,5.03
2017-11-29T14:19:41.472Z,5.03
2017-11-29T14:22:09.207Z,5.05
2017-11-29T14:24:36.876Z,5.06
2017-11-29T14:27:04.569Z,5.06
2017-11-29T14:29:32.243Z,5.06
2017-11-29T14:31:59.832Z,5.06
2017-11-29T14:34:27.468Z,5.05
2017-11-29T14:36:55.056Z,5.03
2017-11-29T14:39:22.689Z,5.02
2017-11-29T14:41:50.336Z,5.01
2017-11-29T14:44:18.068Z,5.00
2017-11-29T14:46:45.648Z,4.97
2017-11-29T14:49:13.338Z,4.94
2017-11-29T14:51:41.038Z,4.92
2017-11-29T14:54:08.743Z,4.90
2017-11-29T14:56:36.402Z,4.87
2017-11-29T14:59:04.177Z,4.87
2017-11-29T15:01:31.882Z,4.87
2017-11-29T15:03:59.617Z,4.87
2017-11-29T15:06:27.302Z,4.86
2017-11-29T15:08:55.007Z,4.86
2017-11-29T15:11:22.638Z,4.84
2017-11-29T15:13:50.261Z,4.84
2017-11-29T15:16:17.867Z,4.83
2017-11-29T15:18:45.549Z,4.83
2017-11-29T15:21:13.217Z,4.80
2017-11-29T15:23:40.842Z,4.80
2017-11-29T15:26:08.450Z,4.79
2017-11-29T15:28:36.203Z,4.78
2017-11-29T15:31:03.839Z,4.75
2017-11-29T15:33:33.089Z,4.72
2017-11-29T15:36:00.787Z,4.67
2017-11-29T15:38:28.383Z,4.64
2017-11-29T15:40:56.004Z,4.62
2017-11-29T15:43:23.652Z,4.60
2017-11-29T15:45:51.293Z,4.58
2017-11-29T15:48:18.976Z,4.55
2017-11-29T15:50:46.680Z,4.53
2017-11-29T15:53:14.343Z,4.50
2017-11-29T15:55:42.001Z,4.49
2017-11-29T15:58:09.716Z,4.46
2017-11-29T16:00:37.443Z,4.44
2017-11-29T16:03:05.102Z,4.43
2017-11-29T16:05:32.810Z,4.41
2017-11-29T16:08:00.482Z,4.40
2017-11-29T16:10:28.223Z,4.39
2017-11-29T16:12:55.852Z,4.38
2017-11-29T16:15:23.501Z,4.37
2017-11-29T16:17:51.121Z,4.37
2017-11-29T16:20:18.769Z,4.38
2017-11-29T16:22:46.431Z,4.38
2017-11-29T16:25:14.162Z,4.39
2017-11-29T16:27:41.890Z,4.39
2017-11-29T16:30:09.672Z,4.39
2017-11-29T16:32:37.339Z,4.39
2017-11-29T16:35:05.029Z,4.39
2017-11-29T16:37:32.790Z,4.38
2017-11-29T16:40:00.468Z,4.39
2017-11-29T16:42:28.193Z,4.38
2017-11-29T16:44:55.894Z,4.38
2017-11-29T16:47:23.614Z,4.38
2017-11-29T16:49:51.299Z,4.38
2017-11-29T16:52:18.999Z,4.37
2017-11-29T16:54:46.670Z,4.38
2017-11-29T16:57:14.388Z,4.37
2017-11-29T16:59:42.072Z,4.37
2017-11-29T17:02:09.781Z,4.37
2017-11-29T17:04:37.472Z,4.36
2017-11-29T17:07:05.198Z,4.34
2017-11-29T17:09:32.885Z,4.33
2017-11-29T17:12:00.619Z,4.30
2017-11-29T17:14:28.265Z,4.27
2017-11-29T17:16:55.976Z,4.24
2017-11-29T17:19:23.605Z,4.18
2017-11-29T17:21:51.281Z,4.15
2017-11-29T17:24:19.009Z,4.12
2017-11-29T17:26:46.675Z,4.09
2017-11-29T17:29:14.312Z,4.05
2017-11-29T17:31:42.054Z,4.01
2017-11-29T17:34:09.759Z,3.99
2017-11-29T17:36:37.382Z,3.97
2017-11-29T17:39:05.116Z,3.95
2017-11-29T17:41:32.779Z,3.94
2017-11-29T17:44:00.479Z,3.96
2017-11-29T17:46:28.148Z,3.97
2017-11-29T17:48:55.837Z,3.98
2017-11-29T17:51:23.540Z,3.99
2017-11-29T17:53:51.297Z,4.02
2017-11-29T17:56:18.984Z,4.03
2017-11-29T17:58:46.748Z,4.04
2017-11-29T18:01:14.383Z,4.06
2017-11-29T18:03:42.036Z,4.09
2017-11-29T18:06:09.692Z,4.10
2017-11-29T18:08:37.396Z,4.10
2017-11-29T18:11:05.056Z,4.12
2017-11-29T18:13:32.740Z,4.13
2017-11-29T18:16:00.417Z,4.15
2017-11-29T18:18:28.090Z,4.17
2017-11-29T18:20:55.825Z,4.18
2017-11-29T18:23:23.499Z,4.21
2017-11-29T18:25:51.180Z,4.22
2017-11-29T18:28:18.794Z,4.22
2017-11-29T18:30:46.449Z,4.22
2017-11-29T18:33:14.077Z,4.22
2017-11-29T18:35:41.723Z,4.22
2017-11-29T18:38:09.332Z,4.20
2017-11-29T18:40:36.975Z,4.20
2017-11-29T18:43:04.639Z,4.19
2017-11-29T18:45:32.345Z,4.19
2017-11-29T18:48:00.028Z,4.19
2017-11-29T18:50:27.744Z,4.17
2017-11-29T18:52:55.410Z,4.16
2017-11-29T18:55:23.048Z,4.15
2017-11-29T18:57:50.755Z,4.13
2017-11-29T19:00:18.468Z,4.13
2017-11-29T19:02:46.147Z,4.11
2017-11-29T19:05:13.823Z,4.08
2017-11-29T19:07:41.481Z,4.07
2017-11-29T19:10:09.136Z,4.09
2017-11-29T19:12:36.885Z,4.11
2017-11-29T19:15:04.554Z,4.11
2017-11-29T19:17:32.257Z,4.11
2017-11-29T19:19:59.849Z,4.09
2017-11-29T19:22:27.487Z,4.09
2017-11-29T19:24:55.170Z,4.08
2017-11-29T19:27:22.905Z,4.05
2017-11-29T19:29:50.588Z,4.08
2017-11-29T19:32:18.311Z,4.07
2017-11-29T19:34:45.962Z,4.03
2017-11-29T19:37:13.696Z,3.95
2017-11-29T19:39:41.319Z,3.91
2017-11-29T19:42:09.037Z,3.87
2017-11-29T19:44:36.711Z,3.78
2017-11-29T19:47:04.417Z,3.72
2017-11-29T19:49:32.092Z,3.67
2017-11-29T19:51:59.805Z,3.60
2017-11-29T19:54:27.400Z,3.56
2017-11-29T19:56:55.100Z,3.50
2017-11-29T19:59:22.796Z,3.45
2017-11-29T20:01:50.623Z,3.38
2017-11-29T20:04:18.293Z,3.32
2017-11-29T20:06:46.004Z,3.30
2017-11-29T20:09:13.666Z,3.29
2017-11-29T20:11:41.370Z,3.28
2017-11-29T20:14:09.082Z,3.24
2017-11-29T20:16:36.734Z,3.21
2017-11-29T20:19:04.454Z,3.18
2017-11-29T20:21:32.045Z,3.17
2017-11-29T20:23:59.790Z,3.16
2017-11-29T20:26:27.465Z,3.17
2017-11-29T20:28:55.153Z,3.17
2017-11-29T20:31:22.820Z,3.14
2017-11-29T20:33:50.496Z,3.09
2017-11-29T20:36:18.174Z,3.05
2017-11-29T20:38:45.896Z,3.03
2017-11-29T20:41:13.554Z,2.99
2017-11-29T20:43:41.308Z,2.95
2017-11-29T20:46:08.992Z,2.89
2017-11-29T20:48:36.666Z,2.86
2017-11-29T20:51:04.381Z,2.80
2017-11-29T20:53:32.017Z,2.74
2017-11-29T20:55:59.730Z,2.71
2017-11-29T20:58:27.436Z,2.68
2017-11-29T21:00:55.122Z,2.65
2017-11-29T21:03:22.718Z,2.64
2017-11-29T21:05:50.429Z,2.65
2017-11-29T21:08:18.114Z,2.66
2017-11-29T21:10:45.824Z,2.67
2017-11-29T21:13:13.483Z,2.69
2017-11-29T21:15:41.141Z,2.69
2017-11-29T21:18:08.768Z,2.72
2017-11-29T21:20:36.434Z,2.73
2017-11-29T21:23:04.036Z,2.74
2017-11-29T21:25:31.688Z,2.76
2017-11-29T21:27:59.292Z,2.78
2017-11-29T21:30:26.922Z,2.80
2017-11-29T21:32:54.587Z,2.85
2017-11-29T21:35:22.232Z,2.88
2017-11-29T21:37:49.832Z,2.91
2017-11-29T21:40:17.489Z,2.93
2017-11-29T21:42:45.093Z,2.97
2017-11-29T21:45:12.697Z,3.00
2017-11-29T21:47:40.363Z,3.02
2017-11-29T21:50:08.002Z,3.03
2017-11-29T21:52:35.781Z,3.05
2017-11-29T21:55:04.686Z,3.05
2017-11-29T21:57:32.844Z,3.06
2017-11-29T22:00:00.564Z,3.07
2017-11-29T22:02:28.194Z,3.06
2017-11-29T22:04:55.998Z,3.05
2017-11-29T22:07:23.704Z,3.04
2017-11-29T22:09:51.370Z,3.05
2017-11-29T22:12:19.002Z,3.06
2017-11-29T22:14:46.606Z,3.07
2017-11-29T22:17:14.369Z,3.08
2017-11-29T22:19:41.965Z,3.11
2017-11-29T22:22:09.682Z,3.14
2017-11-29T22:24:37.348Z,3.15
2017-11-29T22:27:05.066Z,3.15
2017-11-29T22:29:32.741Z,3.17
2017-11-29T22:32:00.455Z,3.17
2017-11-29T22:34:28.114Z,3.17
2017-11-29T22:36:55.783Z,3.17
2017-11-29T22:39:23.485Z,3.17
2017-11-29T22:41:51.143Z,3.17
2017-11-29T22:44:18.857Z,3.17
2017-11-29T22:46:47.071Z,3.17
2017-11-29T22:49:14.775Z,3.17
2017-11-29T22:51:42.383Z,3.18
2017-11-29T22:54:10.085Z,3.18
2017-11-29T22:56:37.788Z,3.19
2017-11-29T22:59:05.541Z,3.19
2017-11-29T23:01:33.203Z,3.18
2017-11-29T23:04:00.853Z,3.18
2017-11-29T23:06:28.499Z,3.18
2017-11-29T23:08:56.557Z,3.17
2017-11-29T23:11:24.222Z,3.15
2017-11-29T23:13:51.956Z,3.13
2017-11-29T23:16:19.686Z,3.13
2017-11-29T23:18:47.417Z,3.13
2017-11-29T23:21:15.111Z,3.13
2017-11-29T23:23:42.778Z,3.14
2017-11-29T23:26:10.489Z,3.15
2017-11-29T23:28:38.245Z,3.14
2017-11-29T23:31:05.917Z,3.12
2017-11-29T23:33:33.579Z,3.13
2017-11-29T23:36:01.273Z,3.12
2017-11-29T23:38:28.926Z,3.12
2017-11-29T23:40:56.663Z,3.13
2017-11-29T23:43:24.250Z,3.13
2017-11-29T23:45:51.950Z,3.12
2017-11-29T23:48:19.551Z,3.13
2017-11-29T23:50:47.267Z,3.14
2017-11-29T23:53:14.939Z,3.15
2017-11-29T23:55:42.644Z,3.16
2017-11-29T23:58:11.473Z,3.16
